sensor_id;sensor_type;location;lat;lon;timestamp;P1;durP1;ratioP1;P2;durP2;ratioP2
8652;SDS011;4364;52.426;9.424;2022-10-16T00:00:21;2.30;;;1.50;;
8652;SDS011;4364;52.426;9.424;2022-10-16T00:02:48;2.93;;;1.60;;
8652;SDS011;4364;52.426;9.424;2022-10-16T00:05:14;2.20;;;1.77;;
8652;SDS011;4364;52.426;9.424;2022-10-16T00:07:41;4.50;;;1.90;;
8652;SDS011;4364;52.426;9.424;2022-10-16T00:10:08;4.07;;;1.70;;
8652;SDS011;4364;52.426;9.424;2022-10-16T00:12:34;3.40;;;1.60;;
8652;SDS011;4364;52.426;9.424;2022-10-16T00:15:01;2.43;;;1.50;;
8652;SDS011;4364;52.426;9.424;2022-10-16T00:17:27;2.23;;;1.50;;
8652;SDS011;4364;52.426;9.424;2022-10-16T00:19:55;2.10;;;1.30;;
8652;SDS011;4364;52.426;9.424;2022-10-16T00:22:23;2.87;;;1.50;;
8652;SDS011;4364;52.426;9.424;2022-10-16T00:24:51;1.73;;;1.50;;
8652;SDS011;4364;52.426;9.424;2022-10-16T00:27:17;4.20;;;1.50;;
8652;SDS011;4364;52.426;9.424;2022-10-16T00:29:43;1.70;;;1.60;;
8652;SDS011;4364;52.426;9.424;2022-10-16T00:32:10;2.77;;;1.87;;
8652;SDS011;4364;52.426;9.424;2022-10-16T00:34:37;4.10;;;2.30;;
8652;SDS011;4364;52.426;9.424;2022-10-16T00:37:03;3.50;;;1.83;;
8652;SDS011;4364;52.426;9.424;2022-10-16T00:39:30;2.47;;;2.13;;
8652;SDS011;4364;52.426;9.424;2022-10-16T00:41:56;6.03;;;2.10;;
8652;SDS011;4364;52.426;9.424;2022-10-16T00:44:43;3.47;;;2.00;;
8652;SDS011;4364;52.426;9.424;2022-10-16T00:47:20;3.87;;;2.00;;
8652;SDS011;4364;52.426;9.424;2022-10-16T00:49:51;3.30;;;2.07;;
8652;SDS011;4364;52.426;9.424;2022-10-16T00:52:22;4.83;;;2.27;;
8652;SDS011;4364;52.426;9.424;2022-10-16T00:54:49;3.80;;;1.90;;
8652;SDS011;4364;52.426;9.424;2022-10-16T00:57:17;2.87;;;2.17;;
8652;SDS011;4364;52.426;9.424;2022-10-16T00:59:44;3.00;;;1.77;;
8652;SDS011;4364;52.426;9.424;2022-10-16T01:02:13;2.17;;;1.60;;
8652;SDS011;4364;52.426;9.424;2022-10-16T01:04:42;2.20;;;1.70;;
8652;SDS011;4364;52.426;9.424;2022-10-16T01:07:59;3.40;;;2.03;;
8652;SDS011;4364;52.426;9.424;2022-10-16T01:15:36;3.83;;;2.10;;
8652;SDS011;4364;52.426;9.424;2022-10-16T01:23:36;4.73;;;2.23;;
8652;SDS011;4364;52.426;9.424;2022-10-16T01:26:24;4.63;;;1.90;;
8652;SDS011;4364;52.426;9.424;2022-10-16T01:29:07;3.63;;;2.20;;
8652;SDS011;4364;52.426;9.424;2022-10-16T01:31:41;3.50;;;1.90;;
8652;SDS011;4364;52.426;9.424;2022-10-16T01:34:15;4.03;;;2.27;;
8652;SDS011;4364;52.426;9.424;2022-10-16T01:37:02;4.47;;;2.27;;
8652;SDS011;4364;52.426;9.424;2022-10-16T01:39:34;2.40;;;2.20;;
8652;SDS011;4364;52.426;9.424;2022-10-16T01:42:06;2.83;;;2.20;;
8652;SDS011;4364;52.426;9.424;2022-10-16T01:44:37;4.90;;;2.50;;
8652;SDS011;4364;52.426;9.424;2022-10-16T01:47:07;4.83;;;2.30;;
8652;SDS011;4364;52.426;9.424;2022-10-16T01:49:38;4.03;;;2.33;;
8652;SDS011;4364;52.426;9.424;2022-10-16T01:52:09;3.67;;;2.20;;
8652;SDS011;4364;52.426;9.424;2022-10-16T01:54:41;4.10;;;3.07;;
8652;SDS011;4364;52.426;9.424;2022-10-16T01:57:10;3.50;;;2.30;;
8652;SDS011;4364;52.426;9.424;2022-10-16T01:59:47;3.03;;;2.13;;
8652;SDS011;4364;52.426;9.424;2022-10-16T02:02:17;3.23;;;2.33;;
8652;SDS011;4364;52.426;9.424;2022-10-16T02:04:48;6.13;;;2.47;;
8652;SDS011;4364;52.426;9.424;2022-10-16T02:07:18;4.43;;;2.60;;
8652;SDS011;4364;52.426;9.424;2022-10-16T02:09:45;4.60;;;2.60;;
8652;SDS011;4364;52.426;9.424;2022-10-16T02:12:33;5.37;;;2.50;;
8652;SDS011;4364;52.426;9.424;2022-10-16T02:15:01;4.40;;;2.73;;
8652;SDS011;4364;52.426;9.424;2022-10-16T02:17:29;4.93;;;2.73;;
8652;SDS011;4364;52.426;9.424;2022-10-16T02:19:56;7.13;;;2.87;;
8652;SDS011;4364;52.426;9.424;2022-10-16T02:22:28;3.23;;;2.40;;
8652;SDS011;4364;52.426;9.424;2022-10-16T02:25:03;5.30;;;2.83;;
8652;SDS011;4364;52.426;9.424;2022-10-16T02:32:47;5.03;;;2.77;;
8652;SDS011;4364;52.426;9.424;2022-10-16T02:35:16;3.73;;;2.80;;
8652;SDS011;4364;52.426;9.424;2022-10-16T02:37:45;5.47;;;2.60;;
8652;SDS011;4364;52.426;9.424;2022-10-16T02:40:14;4.23;;;3.17;;
8652;SDS011;4364;52.426;9.424;2022-10-16T02:42:44;6.57;;;3.30;;
8652;SDS011;4364;52.426;9.424;2022-10-16T02:45:11;6.80;;;3.17;;
8652;SDS011;4364;52.426;9.424;2022-10-16T02:47:38;6.60;;;2.90;;
8652;SDS011;4364;52.426;9.424;2022-10-16T02:50:04;4.37;;;2.90;;
8652;SDS011;4364;52.426;9.424;2022-10-16T02:52:31;5.07;;;3.33;;
8652;SDS011;4364;52.426;9.424;2022-10-16T02:54:58;4.47;;;3.10;;
8652;SDS011;4364;52.426;9.424;2022-10-16T02:57:24;7.07;;;3.13;;
8652;SDS011;4364;52.426;9.424;2022-10-16T02:59:51;7.60;;;3.47;;
8652;SDS011;4364;52.426;9.424;2022-10-16T03:02:18;8.70;;;3.37;;
8652;SDS011;4364;52.426;9.424;2022-10-16T03:04:46;4.90;;;2.93;;
8652;SDS011;4364;52.426;9.424;2022-10-16T03:07:12;7.30;;;2.87;;
8652;SDS011;4364;52.426;9.424;2022-10-16T03:09:39;5.17;;;2.93;;
8652;SDS011;4364;52.426;9.424;2022-10-16T03:12:05;7.73;;;3.10;;
8652;SDS011;4364;52.426;9.424;2022-10-16T03:14:32;5.47;;;3.00;;
8652;SDS011;4364;52.426;9.424;2022-10-16T03:16:59;9.40;;;3.23;;
8652;SDS011;4364;52.426;9.424;2022-10-16T03:19:27;5.77;;;3.40;;
8652;SDS011;4364;52.426;9.424;2022-10-16T03:21:53;4.20;;;2.77;;
8652;SDS011;4364;52.426;9.424;2022-10-16T03:24:20;4.90;;;2.93;;
8652;SDS011;4364;52.426;9.424;2022-10-16T03:26:46;5.43;;;2.80;;
8652;SDS011;4364;52.426;9.424;2022-10-16T03:29:13;4.93;;;3.00;;
8652;SDS011;4364;52.426;9.424;2022-10-16T03:31:39;4.17;;;2.80;;
8652;SDS011;4364;52.426;9.424;2022-10-16T03:34:06;4.80;;;3.00;;
8652;SDS011;4364;52.426;9.424;2022-10-16T03:36:32;3.70;;;2.60;;
8652;SDS011;4364;52.426;9.424;2022-10-16T03:38:59;4.20;;;2.70;;
8652;SDS011;4364;52.426;9.424;2022-10-16T03:41:26;3.47;;;2.47;;
8652;SDS011;4364;52.426;9.424;2022-10-16T03:43:53;6.13;;;2.97;;
8652;SDS011;4364;52.426;9.424;2022-10-16T03:46:19;4.20;;;2.80;;
8652;SDS011;4364;52.426;9.424;2022-10-16T03:48:46;4.13;;;2.80;;
8652;SDS011;4364;52.426;9.424;2022-10-16T03:51:12;3.13;;;2.70;;
8652;SDS011;4364;52.426;9.424;2022-10-16T03:53:39;4.13;;;2.30;;
8652;SDS011;4364;52.426;9.424;2022-10-16T03:56:05;4.13;;;2.60;;
8652;SDS011;4364;52.426;9.424;2022-10-16T03:58:32;4.40;;;2.50;;
8652;SDS011;4364;52.426;9.424;2022-10-16T04:00:59;4.37;;;2.50;;
8652;SDS011;4364;52.426;9.424;2022-10-16T04:03:26;4.80;;;2.57;;
8652;SDS011;4364;52.426;9.424;2022-10-16T04:05:53;5.43;;;3.30;;
8652;SDS011;4364;52.426;9.424;2022-10-16T04:08:20;4.67;;;2.63;;
8652;SDS011;4364;52.426;9.424;2022-10-16T04:10:47;4.77;;;2.70;;
8652;SDS011;4364;52.426;9.424;2022-10-16T04:13:13;5.80;;;3.17;;
8652;SDS011;4364;52.426;9.424;2022-10-16T04:15:40;6.77;;;3.33;;
8652;SDS011;4364;52.426;9.424;2022-10-16T04:18:06;5.13;;;2.80;;
8652;SDS011;4364;52.426;9.424;2022-10-16T04:20:33;7.03;;;2.80;;
8652;SDS011;4364;52.426;9.424;2022-10-16T04:23:00;3.77;;;2.50;;
8652;SDS011;4364;52.426;9.424;2022-10-16T04:25:26;4.20;;;2.67;;
8652;SDS011;4364;52.426;9.424;2022-10-16T04:27:53;4.37;;;2.90;;
8652;SDS011;4364;52.426;9.424;2022-10-16T04:30:21;3.07;;;2.77;;
8652;SDS011;4364;52.426;9.424;2022-10-16T04:32:51;5.67;;;3.10;;
8652;SDS011;4364;52.426;9.424;2022-10-16T04:35:19;4.20;;;3.30;;
8652;SDS011;4364;52.426;9.424;2022-10-16T04:37:46;4.07;;;3.30;;
8652;SDS011;4364;52.426;9.424;2022-10-16T04:40:13;4.23;;;3.13;;
8652;SDS011;4364;52.426;9.424;2022-10-16T04:42:40;4.70;;;3.10;;
8652;SDS011;4364;52.426;9.424;2022-10-16T04:45:08;4.83;;;3.20;;
8652;SDS011;4364;52.426;9.424;2022-10-16T04:47:40;5.40;;;3.30;;
8652;SDS011;4364;52.426;9.424;2022-10-16T04:50:06;4.30;;;2.83;;
8652;SDS011;4364;52.426;9.424;2022-10-16T04:52:33;8.40;;;3.67;;
8652;SDS011;4364;52.426;9.424;2022-10-16T04:55:05;7.40;;;3.80;;
8652;SDS011;4364;52.426;9.424;2022-10-16T04:57:32;5.97;;;3.30;;
8652;SDS011;4364;52.426;9.424;2022-10-16T04:59:59;5.07;;;3.10;;
8652;SDS011;4364;52.426;9.424;2022-10-16T05:02:26;5.70;;;3.37;;
8652;SDS011;4364;52.426;9.424;2022-10-16T05:04:52;5.97;;;3.90;;
8652;SDS011;4364;52.426;9.424;2022-10-16T05:07:19;4.17;;;3.70;;
8652;SDS011;4364;52.426;9.424;2022-10-16T05:09:46;4.60;;;3.80;;
8652;SDS011;4364;52.426;9.424;2022-10-16T05:12:12;3.90;;;3.30;;
8652;SDS011;4364;52.426;9.424;2022-10-16T05:14:39;6.07;;;3.80;;
8652;SDS011;4364;52.426;9.424;2022-10-16T05:17:05;4.37;;;3.10;;
8652;SDS011;4364;52.426;9.424;2022-10-16T05:19:32;6.43;;;3.80;;
8652;SDS011;4364;52.426;9.424;2022-10-16T05:21:58;4.83;;;3.57;;
8652;SDS011;4364;52.426;9.424;2022-10-16T05:24:25;4.30;;;3.23;;
8652;SDS011;4364;52.426;9.424;2022-10-16T05:26:51;9.77;;;3.80;;
8652;SDS011;4364;52.426;9.424;2022-10-16T05:29:18;5.93;;;3.80;;
8652;SDS011;4364;52.426;9.424;2022-10-16T05:31:45;3.60;;;3.30;;
8652;SDS011;4364;52.426;9.424;2022-10-16T05:34:11;5.00;;;3.40;;
8652;SDS011;4364;52.426;9.424;2022-10-16T05:36:38;5.57;;;3.10;;
8652;SDS011;4364;52.426;9.424;2022-10-16T05:39:04;4.33;;;3.00;;
8652;SDS011;4364;52.426;9.424;2022-10-16T05:41:31;5.90;;;3.20;;
8652;SDS011;4364;52.426;9.424;2022-10-16T05:43:58;4.50;;;3.33;;
8652;SDS011;4364;52.426;9.424;2022-10-16T05:46:24;5.17;;;3.50;;
8652;SDS011;4364;52.426;9.424;2022-10-16T05:48:54;6.63;;;3.33;;
8652;SDS011;4364;52.426;9.424;2022-10-16T05:51:20;6.27;;;4.00;;
8652;SDS011;4364;52.426;9.424;2022-10-16T05:53:47;4.07;;;3.00;;
8652;SDS011;4364;52.426;9.424;2022-10-16T05:56:13;5.93;;;3.40;;
8652;SDS011;4364;52.426;9.424;2022-10-16T05:58:40;6.37;;;3.33;;
8652;SDS011;4364;52.426;9.424;2022-10-16T06:01:10;5.20;;;3.30;;
8652;SDS011;4364;52.426;9.424;2022-10-16T06:03:42;7.80;;;3.80;;
8652;SDS011;4364;52.426;9.424;2022-10-16T06:06:13;3.80;;;2.90;;
8652;SDS011;4364;52.426;9.424;2022-10-16T06:08:44;3.97;;;2.97;;
8652;SDS011;4364;52.426;9.424;2022-10-16T06:11:12;6.77;;;3.73;;
8652;SDS011;4364;52.426;9.424;2022-10-16T06:13:44;4.73;;;3.20;;
8652;SDS011;4364;52.426;9.424;2022-10-16T06:16:12;4.50;;;3.20;;
8652;SDS011;4364;52.426;9.424;2022-10-16T06:18:39;5.77;;;3.60;;
8652;SDS011;4364;52.426;9.424;2022-10-16T06:21:09;3.37;;;3.00;;
8652;SDS011;4364;52.426;9.424;2022-10-16T06:23:38;5.10;;;3.47;;
8652;SDS011;4364;52.426;9.424;2022-10-16T06:26:05;4.70;;;3.13;;
8652;SDS011;4364;52.426;9.424;2022-10-16T06:28:37;5.33;;;3.90;;
8652;SDS011;4364;52.426;9.424;2022-10-16T06:31:04;6.00;;;3.83;;
8652;SDS011;4364;52.426;9.424;2022-10-16T06:33:34;5.83;;;3.90;;
8652;SDS011;4364;52.426;9.424;2022-10-16T06:36:05;4.50;;;3.47;;
8652;SDS011;4364;52.426;9.424;2022-10-16T06:38:32;5.87;;;3.87;;
8652;SDS011;4364;52.426;9.424;2022-10-16T06:40:58;6.57;;;3.77;;
8652;SDS011;4364;52.426;9.424;2022-10-16T06:43:28;5.10;;;3.10;;
8652;SDS011;4364;52.426;9.424;2022-10-16T06:45:58;5.73;;;3.03;;
8652;SDS011;4364;52.426;9.424;2022-10-16T06:48:26;6.00;;;2.77;;
8652;SDS011;4364;52.426;9.424;2022-10-16T06:53:27;5.03;;;2.80;;
8652;SDS011;4364;52.426;9.424;2022-10-16T06:56:09;5.60;;;2.43;;
8652;SDS011;4364;52.426;9.424;2022-10-16T06:58:37;2.97;;;2.30;;
8652;SDS011;4364;52.426;9.424;2022-10-16T07:01:04;3.33;;;2.27;;
8652;SDS011;4364;52.426;9.424;2022-10-16T07:03:32;5.37;;;2.37;;
8652;SDS011;4364;52.426;9.424;2022-10-16T07:06:02;3.43;;;2.30;;
8652;SDS011;4364;52.426;9.424;2022-10-16T07:08:36;3.80;;;2.07;;
8652;SDS011;4364;52.426;9.424;2022-10-16T07:11:06;4.43;;;2.47;;
8652;SDS011;4364;52.426;9.424;2022-10-16T07:13:34;2.10;;;1.90;;
8652;SDS011;4364;52.426;9.424;2022-10-16T07:16:06;3.67;;;2.40;;
8652;SDS011;4364;52.426;9.424;2022-10-16T07:18:32;2.20;;;2.00;;
8652;SDS011;4364;52.426;9.424;2022-10-16T07:21:03;2.63;;;2.40;;
8652;SDS011;4364;52.426;9.424;2022-10-16T07:23:31;2.43;;;2.03;;
8652;SDS011;4364;52.426;9.424;2022-10-16T07:25:57;3.13;;;2.10;;
8652;SDS011;4364;52.426;9.424;2022-10-16T07:28:24;3.97;;;2.20;;
8652;SDS011;4364;52.426;9.424;2022-10-16T07:30:50;3.93;;;2.03;;
8652;SDS011;4364;52.426;9.424;2022-10-16T07:33:17;5.33;;;1.80;;
8652;SDS011;4364;52.426;9.424;2022-10-16T07:36:02;2.57;;;1.93;;
8652;SDS011;4364;52.426;9.424;2022-10-16T07:38:29;2.60;;;1.70;;
8652;SDS011;4364;52.426;9.424;2022-10-16T07:40:59;2.30;;;2.03;;
8652;SDS011;4364;52.426;9.424;2022-10-16T07:43:29;4.37;;;1.67;;
8652;SDS011;4364;52.426;9.424;2022-10-16T07:45:56;2.67;;;1.80;;
8652;SDS011;4364;52.426;9.424;2022-10-16T07:48:28;4.87;;;1.90;;
8652;SDS011;4364;52.426;9.424;2022-10-16T07:50:58;2.83;;;1.70;;
8652;SDS011;4364;52.426;9.424;2022-10-16T07:53:26;2.10;;;1.60;;
8652;SDS011;4364;52.426;9.424;2022-10-16T07:55:57;4.47;;;1.90;;
8652;SDS011;4364;52.426;9.424;2022-10-16T07:58:25;2.03;;;1.50;;
8652;SDS011;4364;52.426;9.424;2022-10-16T08:00:52;3.63;;;1.90;;
8652;SDS011;4364;52.426;9.424;2022-10-16T08:03:18;2.60;;;1.37;;
8652;SDS011;4364;52.426;9.424;2022-10-16T08:05:45;2.53;;;1.40;;
8652;SDS011;4364;52.426;9.424;2022-10-16T08:08:15;2.07;;;1.50;;
8652;SDS011;4364;52.426;9.424;2022-10-16T08:10:42;3.17;;;1.50;;
8652;SDS011;4364;52.426;9.424;2022-10-16T08:13:09;3.00;;;1.50;;
8652;SDS011;4364;52.426;9.424;2022-10-16T08:15:36;1.43;;;1.33;;
8652;SDS011;4364;52.426;9.424;2022-10-16T08:18:03;2.40;;;1.27;;
8652;SDS011;4364;52.426;9.424;2022-10-16T08:20:31;2.90;;;1.30;;
8652;SDS011;4364;52.426;9.424;2022-10-16T08:22:59;2.90;;;1.47;;
8652;SDS011;4364;52.426;9.424;2022-10-16T08:25:27;1.53;;;1.30;;
8652;SDS011;4364;52.426;9.424;2022-10-16T08:27:54;4.07;;;1.63;;
8652;SDS011;4364;52.426;9.424;2022-10-16T08:30:22;1.93;;;1.37;;
8652;SDS011;4364;52.426;9.424;2022-10-16T08:32:50;1.83;;;1.40;;
8652;SDS011;4364;52.426;9.424;2022-10-16T08:35:17;3.87;;;1.10;;
8652;SDS011;4364;52.426;9.424;2022-10-16T08:37:43;2.87;;;1.40;;
8652;SDS011;4364;52.426;9.424;2022-10-16T08:40:16;2.73;;;1.20;;
8652;SDS011;4364;52.426;9.424;2022-10-16T08:42:53;4.37;;;1.57;;
8652;SDS011;4364;52.426;9.424;2022-10-16T08:45:29;1.40;;;1.13;;
8652;SDS011;4364;52.426;9.424;2022-10-16T08:50:44;2.00;;;1.30;;
8652;SDS011;4364;52.426;9.424;2022-10-16T08:53:15;2.87;;;1.33;;
8652;SDS011;4364;52.426;9.424;2022-10-16T08:55:49;3.73;;;1.50;;
8652;SDS011;4364;52.426;9.424;2022-10-16T08:58:18;4.30;;;1.30;;
8652;SDS011;4364;52.426;9.424;2022-10-16T09:01:00;1.97;;;1.33;;
8652;SDS011;4364;52.426;9.424;2022-10-16T09:11:33;3.43;;;1.30;;
8652;SDS011;4364;52.426;9.424;2022-10-16T09:17:26;2.83;;;1.40;;
8652;SDS011;4364;52.426;9.424;2022-10-16T09:20:15;2.63;;;1.30;;
8652;SDS011;4364;52.426;9.424;2022-10-16T09:22:50;2.20;;;1.50;;
8652;SDS011;4364;52.426;9.424;2022-10-16T09:25:21;2.37;;;1.70;;
8652;SDS011;4364;52.426;9.424;2022-10-16T09:27:48;1.90;;;1.40;;
8652;SDS011;4364;52.426;9.424;2022-10-16T09:30:20;2.13;;;1.50;;
8652;SDS011;4364;52.426;9.424;2022-10-16T09:32:48;3.13;;;1.40;;
8652;SDS011;4364;52.426;9.424;2022-10-16T09:35:31;2.07;;;1.27;;
8652;SDS011;4364;52.426;9.424;2022-10-16T09:38:02;3.53;;;1.57;;
8652;SDS011;4364;52.426;9.424;2022-10-16T09:40:30;2.20;;;1.37;;
8652;SDS011;4364;52.426;9.424;2022-10-16T09:43:23;3.03;;;1.30;;
8652;SDS011;4364;52.426;9.424;2022-10-16T09:46:03;2.30;;;1.60;;
8652;SDS011;4364;52.426;9.424;2022-10-16T09:51:06;3.90;;;1.30;;
8652;SDS011;4364;52.426;9.424;2022-10-16T09:53:44;2.23;;;1.20;;
8652;SDS011;4364;52.426;9.424;2022-10-16T09:56:21;2.30;;;1.30;;
8652;SDS011;4364;52.426;9.424;2022-10-16T09:58:50;1.47;;;1.20;;
8652;SDS011;4364;52.426;9.424;2022-10-16T10:01:18;2.10;;;1.50;;
8652;SDS011;4364;52.426;9.424;2022-10-16T10:03:46;2.23;;;1.50;;
8652;SDS011;4364;52.426;9.424;2022-10-16T10:06:18;2.73;;;1.47;;
8652;SDS011;4364;52.426;9.424;2022-10-16T10:12:02;5.20;;;1.40;;
8652;SDS011;4364;52.426;9.424;2022-10-16T10:14:35;3.33;;;1.50;;
8652;SDS011;4364;52.426;9.424;2022-10-16T10:17:14;5.47;;;1.33;;
8652;SDS011;4364;52.426;9.424;2022-10-16T10:25:35;2.40;;;1.40;;
8652;SDS011;4364;52.426;9.424;2022-10-16T10:44:11;3.20;;;1.37;;
8652;SDS011;4364;52.426;9.424;2022-10-16T10:46:54;2.57;;;1.20;;
8652;SDS011;4364;52.426;9.424;2022-10-16T10:52:30;2.33;;;1.10;;
8652;SDS011;4364;52.426;9.424;2022-10-16T10:55:16;3.07;;;1.20;;
8652;SDS011;4364;52.426;9.424;2022-10-16T11:00:23;3.07;;;1.30;;
8652;SDS011;4364;52.426;9.424;2022-10-16T11:03:04;2.60;;;1.20;;
8652;SDS011;4364;52.426;9.424;2022-10-16T11:05:59;2.27;;;1.20;;
8652;SDS011;4364;52.426;9.424;2022-10-16T11:08:36;2.47;;;1.30;;
8652;SDS011;4364;52.426;9.424;2022-10-16T11:11:09;4.43;;;1.30;;
8652;SDS011;4364;52.426;9.424;2022-10-16T11:14:00;3.10;;;1.50;;
8652;SDS011;4364;52.426;9.424;2022-10-16T11:16:54;2.77;;;1.30;;
8652;SDS011;4364;52.426;9.424;2022-10-16T11:22:34;3.63;;;1.60;;
8652;SDS011;4364;52.426;9.424;2022-10-16T11:27:44;2.70;;;1.40;;
8652;SDS011;4364;52.426;9.424;2022-10-16T11:30:20;2.40;;;1.17;;
8652;SDS011;4364;52.426;9.424;2022-10-16T11:35:48;4.03;;;1.50;;
8652;SDS011;4364;52.426;9.424;2022-10-16T11:41:03;3.33;;;1.30;;
8652;SDS011;4364;52.426;9.424;2022-10-16T11:43:56;2.93;;;1.30;;
8652;SDS011;4364;52.426;9.424;2022-10-16T11:46:44;4.03;;;1.27;;
8652;SDS011;4364;52.426;9.424;2022-10-16T11:49:49;3.40;;;1.30;;
8652;SDS011;4364;52.426;9.424;2022-10-16T11:52:30;2.77;;;1.50;;
8652;SDS011;4364;52.426;9.424;2022-10-16T11:55:14;4.10;;;1.37;;
8652;SDS011;4364;52.426;9.424;2022-10-16T11:57:45;3.90;;;1.70;;
8652;SDS011;4364;52.426;9.424;2022-10-16T12:03:04;2.23;;;1.23;;
8652;SDS011;4364;52.426;9.424;2022-10-16T12:08:38;3.30;;;1.50;;
8652;SDS011;4364;52.426;9.424;2022-10-16T12:11:09;3.63;;;1.50;;
8652;SDS011;4364;52.426;9.424;2022-10-16T12:13:48;4.40;;;1.60;;
8652;SDS011;4364;52.426;9.424;2022-10-16T12:18:45;1.93;;;1.50;;
8652;SDS011;4364;52.426;9.424;2022-10-16T12:21:13;2.73;;;1.47;;
8652;SDS011;4364;52.426;9.424;2022-10-16T12:23:49;6.37;;;1.97;;
8652;SDS011;4364;52.426;9.424;2022-10-16T12:26:33;3.57;;;1.20;;
8652;SDS011;4364;52.426;9.424;2022-10-16T12:29:28;3.10;;;1.30;;
8652;SDS011;4364;52.426;9.424;2022-10-16T12:32:21;1.30;;;1.00;;
8652;SDS011;4364;52.426;9.424;2022-10-16T12:35:23;4.33;;;1.27;;
8652;SDS011;4364;52.426;9.424;2022-10-16T12:37:52;2.10;;;1.37;;
8652;SDS011;4364;52.426;9.424;2022-10-16T12:40:24;5.93;;;1.47;;
8652;SDS011;4364;52.426;9.424;2022-10-16T12:42:54;2.93;;;1.20;;
8652;SDS011;4364;52.426;9.424;2022-10-16T12:45:31;1.80;;;1.20;;
8652;SDS011;4364;52.426;9.424;2022-10-16T12:48:00;5.03;;;1.20;;
8652;SDS011;4364;52.426;9.424;2022-10-16T12:50:36;3.00;;;1.40;;
8652;SDS011;4364;52.426;9.424;2022-10-16T12:53:21;2.50;;;1.37;;
8652;SDS011;4364;52.426;9.424;2022-10-16T12:55:52;2.13;;;1.60;;
8652;SDS011;4364;52.426;9.424;2022-10-16T12:58:36;2.13;;;1.30;;
8652;SDS011;4364;52.426;9.424;2022-10-16T13:04:13;2.13;;;1.10;;
8652;SDS011;4364;52.426;9.424;2022-10-16T13:09:56;1.57;;;1.10;;
8652;SDS011;4364;52.426;9.424;2022-10-16T13:18:38;4.07;;;1.50;;
8652;SDS011;4364;52.426;9.424;2022-10-16T13:21:22;2.37;;;1.30;;
8652;SDS011;4364;52.426;9.424;2022-10-16T13:24:09;4.30;;;1.33;;
8652;SDS011;4364;52.426;9.424;2022-10-16T13:29:15;4.43;;;1.30;;
8652;SDS011;4364;52.426;9.424;2022-10-16T13:31:42;3.63;;;1.50;;
8652;SDS011;4364;52.426;9.424;2022-10-16T13:34:14;3.23;;;1.63;;
8652;SDS011;4364;52.426;9.424;2022-10-16T13:36:47;2.87;;;1.40;;
8652;SDS011;4364;52.426;9.424;2022-10-16T13:39:29;3.33;;;1.40;;
8652;SDS011;4364;52.426;9.424;2022-10-16T13:44:39;3.40;;;1.80;;
8652;SDS011;4364;52.426;9.424;2022-10-16T13:47:18;3.53;;;1.47;;
8652;SDS011;4364;52.426;9.424;2022-10-16T13:52:30;4.83;;;1.50;;
8652;SDS011;4364;52.426;9.424;2022-10-16T13:54:58;2.40;;;1.47;;
8652;SDS011;4364;52.426;9.424;2022-10-16T13:57:27;3.87;;;1.57;;
8652;SDS011;4364;52.426;9.424;2022-10-16T13:59:54;3.07;;;1.50;;
8652;SDS011;4364;52.426;9.424;2022-10-16T14:02:35;4.87;;;1.57;;
8652;SDS011;4364;52.426;9.424;2022-10-16T14:05:08;2.30;;;1.50;;
8652;SDS011;4364;52.426;9.424;2022-10-16T14:07:36;2.97;;;1.27;;
8652;SDS011;4364;52.426;9.424;2022-10-16T14:10:05;5.43;;;1.67;;
8652;SDS011;4364;52.426;9.424;2022-10-16T14:12:44;3.70;;;1.63;;
8652;SDS011;4364;52.426;9.424;2022-10-16T14:15:17;2.57;;;1.40;;
8652;SDS011;4364;52.426;9.424;2022-10-16T14:17:45;2.17;;;1.40;;
8652;SDS011;4364;52.426;9.424;2022-10-16T14:20:15;2.63;;;1.40;;
8652;SDS011;4364;52.426;9.424;2022-10-16T14:22:42;3.93;;;1.70;;
8652;SDS011;4364;52.426;9.424;2022-10-16T14:27:55;4.47;;;1.60;;
8652;SDS011;4364;52.426;9.424;2022-10-16T14:30:25;3.07;;;1.80;;
8652;SDS011;4364;52.426;9.424;2022-10-16T14:33:02;3.10;;;1.67;;
8652;SDS011;4364;52.426;9.424;2022-10-16T14:37:58;3.20;;;1.60;;
8652;SDS011;4364;52.426;9.424;2022-10-16T14:40:28;3.97;;;1.77;;
8652;SDS011;4364;52.426;9.424;2022-10-16T14:42:57;3.40;;;1.60;;
8652;SDS011;4364;52.426;9.424;2022-10-16T14:45:27;3.87;;;1.60;;
8652;SDS011;4364;52.426;9.424;2022-10-16T14:47:57;3.10;;;1.50;;
8652;SDS011;4364;52.426;9.424;2022-10-16T14:50:25;5.80;;;1.90;;
8652;SDS011;4364;52.426;9.424;2022-10-16T14:52:52;3.17;;;1.40;;
8652;SDS011;4364;52.426;9.424;2022-10-16T14:55:18;2.40;;;1.50;;
8652;SDS011;4364;52.426;9.424;2022-10-16T14:57:45;2.97;;;1.60;;
8652;SDS011;4364;52.426;9.424;2022-10-16T15:00:17;3.73;;;1.50;;
8652;SDS011;4364;52.426;9.424;2022-10-16T15:02:47;4.50;;;1.60;;
8652;SDS011;4364;52.426;9.424;2022-10-16T15:05:16;2.63;;;1.50;;
8652;SDS011;4364;52.426;9.424;2022-10-16T15:07:43;3.10;;;1.80;;
8652;SDS011;4364;52.426;9.424;2022-10-16T15:10:14;3.30;;;1.50;;
8652;SDS011;4364;52.426;9.424;2022-10-16T15:12:43;3.13;;;1.60;;
8652;SDS011;4364;52.426;9.424;2022-10-16T15:17:58;2.93;;;1.57;;
8652;SDS011;4364;52.426;9.424;2022-10-16T15:20:27;4.30;;;1.70;;
8652;SDS011;4364;52.426;9.424;2022-10-16T15:22:56;3.87;;;1.50;;
8652;SDS011;4364;52.426;9.424;2022-10-16T15:27:58;3.97;;;1.80;;
8652;SDS011;4364;52.426;9.424;2022-10-16T15:30:26;3.03;;;1.40;;
8652;SDS011;4364;52.426;9.424;2022-10-16T15:32:52;3.97;;;1.80;;
8652;SDS011;4364;52.426;9.424;2022-10-16T15:35:19;6.63;;;1.77;;
8652;SDS011;4364;52.426;9.424;2022-10-16T15:37:46;2.30;;;1.47;;
8652;SDS011;4364;52.426;9.424;2022-10-16T15:40:14;3.37;;;1.97;;
8652;SDS011;4364;52.426;9.424;2022-10-16T15:42:41;4.20;;;1.60;;
8652;SDS011;4364;52.426;9.424;2022-10-16T15:45:08;1.97;;;1.40;;
8652;SDS011;4364;52.426;9.424;2022-10-16T15:47:36;3.33;;;1.50;;
8652;SDS011;4364;52.426;9.424;2022-10-16T15:50:06;2.50;;;1.60;;
8652;SDS011;4364;52.426;9.424;2022-10-16T15:52:34;3.60;;;2.13;;
8652;SDS011;4364;52.426;9.424;2022-10-16T15:55:01;3.60;;;1.60;;
8652;SDS011;4364;52.426;9.424;2022-10-16T15:57:28;4.60;;;2.17;;
8652;SDS011;4364;52.426;9.424;2022-10-16T15:59:55;4.77;;;2.10;;
8652;SDS011;4364;52.426;9.424;2022-10-16T16:02:22;3.23;;;1.60;;
8652;SDS011;4364;52.426;9.424;2022-10-16T16:04:48;4.57;;;1.93;;
8652;SDS011;4364;52.426;9.424;2022-10-16T16:07:15;2.33;;;1.60;;
8652;SDS011;4364;52.426;9.424;2022-10-16T16:09:42;4.20;;;2.03;;
8652;SDS011;4364;52.426;9.424;2022-10-16T16:12:10;3.07;;;1.83;;
8652;SDS011;4364;52.426;9.424;2022-10-16T16:14:36;2.83;;;1.80;;
8652;SDS011;4364;52.426;9.424;2022-10-16T16:17:03;2.63;;;1.70;;
8652;SDS011;4364;52.426;9.424;2022-10-16T16:19:29;6.37;;;2.30;;
8652;SDS011;4364;52.426;9.424;2022-10-16T16:21:57;2.83;;;1.90;;
8652;SDS011;4364;52.426;9.424;2022-10-16T16:24:23;2.10;;;1.80;;
8652;SDS011;4364;52.426;9.424;2022-10-16T16:26:50;3.67;;;1.77;;
8652;SDS011;4364;52.426;9.424;2022-10-16T16:29:16;3.57;;;2.13;;
8652;SDS011;4364;52.426;9.424;2022-10-16T16:31:43;3.53;;;2.30;;
8652;SDS011;4364;52.426;9.424;2022-10-16T16:34:10;2.70;;;2.00;;
8652;SDS011;4364;52.426;9.424;2022-10-16T16:36:36;3.33;;;2.10;;
8652;SDS011;4364;52.426;9.424;2022-10-16T16:39:03;3.80;;;2.60;;
8652;SDS011;4364;52.426;9.424;2022-10-16T16:41:30;3.37;;;2.40;;
8652;SDS011;4364;52.426;9.424;2022-10-16T16:44:03;3.80;;;2.20;;
8652;SDS011;4364;52.426;9.424;2022-10-16T16:46:32;2.63;;;2.20;;
8652;SDS011;4364;52.426;9.424;2022-10-16T16:49:00;2.70;;;2.17;;
8652;SDS011;4364;52.426;9.424;2022-10-16T16:51:29;3.57;;;2.50;;
8652;SDS011;4364;52.426;9.424;2022-10-16T16:53:56;3.43;;;2.67;;
8652;SDS011;4364;52.426;9.424;2022-10-16T16:56:23;3.77;;;3.20;;
8652;SDS011;4364;52.426;9.424;2022-10-16T16:58:52;5.30;;;3.23;;
8652;SDS011;4364;52.426;9.424;2022-10-16T17:01:21;4.07;;;2.80;;
8652;SDS011;4364;52.426;9.424;2022-10-16T17:03:51;3.70;;;2.90;;
8652;SDS011;4364;52.426;9.424;2022-10-16T17:06:23;3.17;;;2.50;;
8652;SDS011;4364;52.426;9.424;2022-10-16T17:08:51;4.40;;;2.50;;
8652;SDS011;4364;52.426;9.424;2022-10-16T17:11:22;4.57;;;3.03;;
8652;SDS011;4364;52.426;9.424;2022-10-16T17:13:51;4.07;;;3.37;;
8652;SDS011;4364;52.426;9.424;2022-10-16T17:16:23;6.90;;;3.60;;
8652;SDS011;4364;52.426;9.424;2022-10-16T17:18:52;4.20;;;3.60;;
8652;SDS011;4364;52.426;9.424;2022-10-16T17:21:19;4.37;;;3.40;;
8652;SDS011;4364;52.426;9.424;2022-10-16T17:23:46;4.10;;;3.70;;
8652;SDS011;4364;52.426;9.424;2022-10-16T17:26:13;4.23;;;3.30;;
8652;SDS011;4364;52.426;9.424;2022-10-16T17:28:42;4.07;;;3.67;;
8652;SDS011;4364;52.426;9.424;2022-10-16T17:31:11;4.10;;;3.70;;